Decoded Metar for ZMUB (ULAN BATOR in MONGOLIA) (IATA:ULN) | Meteo·Mobile Aviation Weather
aviador You're here:

ZMUB Decoded Metar

ULAN BATOR in MONGOLIA
Report Time2018-12-16 11:00:00
UTC Time2018-12-16 11:27:44
Flight Rules vfr VFR
Wind160° at 6 kt
W.Decomp.*RWY 15: 5.8 kt HW 1.3 kt RCW
RWY 14: 5.5 kt HW 2.3 kt RCW
W.Rank160° ranks 6
Current wind is below 160° avg. (6.9)
Visibility9999 m
Phenomena:N/A
Clouds:N/A
Expected CloudBase > 1,200 ft AGL from Temp-Dew spread
CeilingNone
Temp-20°C (ISA -26)
Dew Point-23°C (77% RH)
AAT-25.8°C
QNH1016 hPa
Density Alt961 ft
Elevation4,364 ft
Report Wrong Elevation
Raw Report
ZMUB 161100Z 16003MPS CAVOK M20/M23 Q1016 NOSIG RMK QFE654.6
71=

Extra information for ZMUB:More info

Metar Taf Metar & Taf Last 4 Metars F.Rules Stats Wind Profile Meteogram Temp Stats Airport Information Weather charts Add Link Nearby VenuesMetar ALERT Operation Metar Decoded Social comments